sensor_id;sensor_type;location;lat;lon;timestamp;P1;durP1;ratioP1;P2;durP2;ratioP2
47882;SDS011;37739;50.350;7.578;2022-08-01T00:00:43;1.43;;;1.00;;
47882;SDS011;37739;50.350;7.578;2022-08-01T00:03:10;1.13;;;0.90;;
47882;SDS011;37739;50.350;7.578;2022-08-01T00:05:36;1.10;;;0.90;;
47882;SDS011;37739;50.350;7.578;2022-08-01T00:08:03;1.17;;;0.90;;
47882;SDS011;37739;50.350;7.578;2022-08-01T00:10:29;0.83;;;0.70;;
47882;SDS011;37739;50.350;7.578;2022-08-01T00:12:54;1.60;;;0.90;;
47882;SDS011;37739;50.350;7.578;2022-08-01T00:15:24;1.77;;;0.97;;
47882;SDS011;37739;50.350;7.578;2022-08-01T00:17:49;1.37;;;0.87;;
47882;SDS011;37739;50.350;7.578;2022-08-01T00:20:17;1.13;;;1.03;;
47882;SDS011;37739;50.350;7.578;2022-08-01T00:22:42;1.20;;;0.83;;
47882;SDS011;37739;50.350;7.578;2022-08-01T00:25:08;1.20;;;0.93;;
47882;SDS011;37739;50.350;7.578;2022-08-01T00:27:33;2.30;;;1.00;;
47882;SDS011;37739;50.350;7.578;2022-08-01T00:29:59;0.90;;;0.80;;
47882;SDS011;37739;50.350;7.578;2022-08-01T00:32:24;2.87;;;0.90;;
47882;SDS011;37739;50.350;7.578;2022-08-01T00:34:50;1.00;;;0.90;;
47882;SDS011;37739;50.350;7.578;2022-08-01T00:37:15;1.47;;;0.87;;
47882;SDS011;37739;50.350;7.578;2022-08-01T00:39:41;1.00;;;0.80;;
47882;SDS011;37739;50.350;7.578;2022-08-01T00:42:09;0.97;;;0.87;;
47882;SDS011;37739;50.350;7.578;2022-08-01T00:44:37;0.87;;;0.70;;
47882;SDS011;37739;50.350;7.578;2022-08-01T00:47:08;1.13;;;0.80;;
47882;SDS011;37739;50.350;7.578;2022-08-01T00:49:34;1.63;;;1.07;;
47882;SDS011;37739;50.350;7.578;2022-08-01T00:52:03;1.20;;;1.10;;
47882;SDS011;37739;50.350;7.578;2022-08-01T00:54:30;1.17;;;0.87;;
47882;SDS011;37739;50.350;7.578;2022-08-01T00:56:55;1.00;;;0.90;;
47882;SDS011;37739;50.350;7.578;2022-08-01T00:59:22;0.73;;;0.70;;
47882;SDS011;37739;50.350;7.578;2022-08-01T01:01:50;1.20;;;0.90;;
47882;SDS011;37739;50.350;7.578;2022-08-01T01:04:18;0.90;;;0.77;;
47882;SDS011;37739;50.350;7.578;2022-08-01T01:09:18;1.00;;;0.70;;
47882;SDS011;37739;50.350;7.578;2022-08-01T01:11:57;1.33;;;0.90;;
47882;SDS011;37739;50.350;7.578;2022-08-01T01:14:38;1.00;;;0.83;;
47882;SDS011;37739;50.350;7.578;2022-08-01T01:17:14;0.90;;;0.80;;
47882;SDS011;37739;50.350;7.578;2022-08-01T01:19:44;1.80;;;1.00;;
47882;SDS011;37739;50.350;7.578;2022-08-01T01:25:25;1.17;;;0.70;;
47882;SDS011;37739;50.350;7.578;2022-08-01T01:30:33;1.20;;;0.80;;
47882;SDS011;37739;50.350;7.578;2022-08-01T01:33:05;1.20;;;1.10;;
47882;SDS011;37739;50.350;7.578;2022-08-01T01:35:32;1.83;;;0.97;;
47882;SDS011;37739;50.350;7.578;2022-08-01T01:38:07;0.90;;;0.77;;
47882;SDS011;37739;50.350;7.578;2022-08-01T01:40:38;1.07;;;0.80;;
47882;SDS011;37739;50.350;7.578;2022-08-01T01:43:05;0.77;;;0.67;;
47882;SDS011;37739;50.350;7.578;2022-08-01T01:45:38;0.80;;;0.60;;
47882;SDS011;37739;50.350;7.578;2022-08-01T01:48:05;0.90;;;0.80;;
47882;SDS011;37739;50.350;7.578;2022-08-01T01:50:34;0.70;;;0.70;;
47882;SDS011;37739;50.350;7.578;2022-08-01T01:53:02;1.10;;;1.00;;
47882;SDS011;37739;50.350;7.578;2022-08-01T01:55:32;1.13;;;0.77;;
47882;SDS011;37739;50.350;7.578;2022-08-01T01:58:04;0.87;;;0.70;;
47882;SDS011;37739;50.350;7.578;2022-08-01T02:00:31;1.00;;;0.70;;
47882;SDS011;37739;50.350;7.578;2022-08-01T02:03:04;1.97;;;0.80;;
47882;SDS011;37739;50.350;7.578;2022-08-01T02:05:31;1.20;;;1.00;;
47882;SDS011;37739;50.350;7.578;2022-08-01T02:07:59;0.80;;;0.67;;
47882;SDS011;37739;50.350;7.578;2022-08-01T02:10:29;1.00;;;0.73;;
47882;SDS011;37739;50.350;7.578;2022-08-01T02:13:00;0.90;;;0.60;;
47882;SDS011;37739;50.350;7.578;2022-08-01T02:15:28;0.80;;;0.70;;
47882;SDS011;37739;50.350;7.578;2022-08-01T02:17:58;0.90;;;0.80;;
47882;SDS011;37739;50.350;7.578;2022-08-01T02:20:26;0.77;;;0.70;;
47882;SDS011;37739;50.350;7.578;2022-08-01T02:22:56;1.37;;;1.00;;
47882;SDS011;37739;50.350;7.578;2022-08-01T02:25:48;1.70;;;1.20;;
47882;SDS011;37739;50.350;7.578;2022-08-01T02:28:22;1.07;;;0.90;;
47882;SDS011;37739;50.350;7.578;2022-08-01T02:30:54;1.27;;;0.80;;
47882;SDS011;37739;50.350;7.578;2022-08-01T02:33:29;2.00;;;0.73;;
47882;SDS011;37739;50.350;7.578;2022-08-01T02:36:01;1.10;;;0.83;;
47882;SDS011;37739;50.350;7.578;2022-08-01T02:38:31;1.60;;;0.80;;
47882;SDS011;37739;50.350;7.578;2022-08-01T02:40:59;1.10;;;1.00;;
47882;SDS011;37739;50.350;7.578;2022-08-01T02:43:30;0.90;;;0.80;;
47882;SDS011;37739;50.350;7.578;2022-08-01T02:46:00;1.07;;;0.87;;
47882;SDS011;37739;50.350;7.578;2022-08-01T02:48:30;1.03;;;0.90;;
47882;SDS011;37739;50.350;7.578;2022-08-01T02:50:59;1.70;;;1.10;;
47882;SDS011;37739;50.350;7.578;2022-08-01T02:53:27;1.00;;;0.90;;
47882;SDS011;37739;50.350;7.578;2022-08-01T02:56:02;1.03;;;0.73;;
47882;SDS011;37739;50.350;7.578;2022-08-01T02:58:29;0.83;;;0.80;;
47882;SDS011;37739;50.350;7.578;2022-08-01T03:00:56;1.17;;;0.80;;
47882;SDS011;37739;50.350;7.578;2022-08-01T03:03:23;0.83;;;0.70;;
47882;SDS011;37739;50.350;7.578;2022-08-01T03:05:49;0.90;;;0.80;;
47882;SDS011;37739;50.350;7.578;2022-08-01T03:08:17;0.90;;;0.80;;
47882;SDS011;37739;50.350;7.578;2022-08-01T03:10:45;1.60;;;1.20;;
47882;SDS011;37739;50.350;7.578;2022-08-01T03:13:11;1.10;;;0.90;;
47882;SDS011;37739;50.350;7.578;2022-08-01T03:15:41;1.20;;;0.90;;
47882;SDS011;37739;50.350;7.578;2022-08-01T03:18:11;1.13;;;1.03;;
47882;SDS011;37739;50.350;7.578;2022-08-01T03:20:38;0.90;;;0.80;;
47882;SDS011;37739;50.350;7.578;2022-08-01T03:23:07;1.00;;;0.90;;
47882;SDS011;37739;50.350;7.578;2022-08-01T03:25:34;1.70;;;1.03;;
47882;SDS011;37739;50.350;7.578;2022-08-01T03:28:06;1.23;;;0.90;;
47882;SDS011;37739;50.350;7.578;2022-08-01T03:30:36;1.20;;;0.77;;
47882;SDS011;37739;50.350;7.578;2022-08-01T03:33:04;2.00;;;0.90;;
47882;SDS011;37739;50.350;7.578;2022-08-01T03:35:33;1.07;;;0.90;;
47882;SDS011;37739;50.350;7.578;2022-08-01T03:38:01;1.37;;;1.10;;
47882;SDS011;37739;50.350;7.578;2022-08-01T03:40:34;1.63;;;0.93;;
47882;SDS011;37739;50.350;7.578;2022-08-01T03:43:02;1.07;;;0.93;;
47882;SDS011;37739;50.350;7.578;2022-08-01T03:45:35;1.50;;;0.93;;
47882;SDS011;37739;50.350;7.578;2022-08-01T03:48:06;1.37;;;1.10;;
47882;SDS011;37739;50.350;7.578;2022-08-01T03:50:39;1.33;;;1.00;;
47882;SDS011;37739;50.350;7.578;2022-08-01T03:53:08;0.87;;;0.80;;
47882;SDS011;37739;50.350;7.578;2022-08-01T03:55:37;1.20;;;1.00;;
47882;SDS011;37739;50.350;7.578;2022-08-01T03:58:05;1.27;;;0.97;;
47882;SDS011;37739;50.350;7.578;2022-08-01T04:00:34;1.30;;;1.10;;
47882;SDS011;37739;50.350;7.578;2022-08-01T04:03:03;1.40;;;1.23;;
47882;SDS011;37739;50.350;7.578;2022-08-01T04:05:29;1.40;;;1.27;;
47882;SDS011;37739;50.350;7.578;2022-08-01T04:07:56;1.67;;;1.57;;
47882;SDS011;37739;50.350;7.578;2022-08-01T04:10:24;2.30;;;2.10;;
47882;SDS011;37739;50.350;7.578;2022-08-01T04:12:49;2.30;;;1.90;;
47882;SDS011;37739;50.350;7.578;2022-08-01T04:15:15;1.50;;;1.40;;
47882;SDS011;37739;50.350;7.578;2022-08-01T04:17:41;2.70;;;1.70;;
47882;SDS011;37739;50.350;7.578;2022-08-01T04:20:06;2.70;;;1.90;;
47882;SDS011;37739;50.350;7.578;2022-08-01T04:22:32;2.13;;;1.90;;
47882;SDS011;37739;50.350;7.578;2022-08-01T04:25:01;1.63;;;1.53;;
47882;SDS011;37739;50.350;7.578;2022-08-01T04:27:31;1.90;;;1.53;;
47882;SDS011;37739;50.350;7.578;2022-08-01T04:30:00;1.63;;;1.50;;
47882;SDS011;37739;50.350;7.578;2022-08-01T04:32:27;2.00;;;1.73;;
47882;SDS011;37739;50.350;7.578;2022-08-01T04:34:56;1.90;;;1.80;;
47882;SDS011;37739;50.350;7.578;2022-08-01T04:37:25;2.10;;;1.90;;
47882;SDS011;37739;50.350;7.578;2022-08-01T04:39:51;2.90;;;2.57;;
47882;SDS011;37739;50.350;7.578;2022-08-01T04:42:17;3.73;;;2.33;;
47882;SDS011;37739;50.350;7.578;2022-08-01T04:44:44;2.27;;;1.80;;
47882;SDS011;37739;50.350;7.578;2022-08-01T04:47:14;2.90;;;2.60;;
47882;SDS011;37739;50.350;7.578;2022-08-01T04:49:42;2.63;;;2.30;;
47882;SDS011;37739;50.350;7.578;2022-08-01T04:52:08;3.37;;;3.07;;
47882;SDS011;37739;50.350;7.578;2022-08-01T04:54:34;2.63;;;2.17;;
47882;SDS011;37739;50.350;7.578;2022-08-01T04:57:05;2.43;;;2.17;;
47882;SDS011;37739;50.350;7.578;2022-08-01T04:59:32;2.57;;;2.40;;
47882;SDS011;37739;50.350;7.578;2022-08-01T05:02:09;2.00;;;1.80;;
47882;SDS011;37739;50.350;7.578;2022-08-01T05:04:40;2.43;;;2.20;;
47882;SDS011;37739;50.350;7.578;2022-08-01T05:07:07;2.30;;;2.10;;
47882;SDS011;37739;50.350;7.578;2022-08-01T05:09:33;3.10;;;2.53;;
47882;SDS011;37739;50.350;7.578;2022-08-01T05:11:59;2.30;;;2.00;;
47882;SDS011;37739;50.350;7.578;2022-08-01T05:14:25;3.20;;;2.30;;
47882;SDS011;37739;50.350;7.578;2022-08-01T05:16:56;3.00;;;1.90;;
47882;SDS011;37739;50.350;7.578;2022-08-01T05:19:22;2.10;;;1.90;;
47882;SDS011;37739;50.350;7.578;2022-08-01T05:21:47;2.57;;;2.00;;
47882;SDS011;37739;50.350;7.578;2022-08-01T05:24:12;2.13;;;1.80;;
47882;SDS011;37739;50.350;7.578;2022-08-01T05:26:38;1.70;;;1.60;;
47882;SDS011;37739;50.350;7.578;2022-08-01T05:29:04;4.07;;;1.50;;
47882;SDS011;37739;50.350;7.578;2022-08-01T05:31:32;2.43;;;1.17;;
47882;SDS011;37739;50.350;7.578;2022-08-01T05:33:59;1.33;;;1.17;;
47882;SDS011;37739;50.350;7.578;2022-08-01T05:36:27;2.43;;;1.10;;
47882;SDS011;37739;50.350;7.578;2022-08-01T05:38:53;1.40;;;1.30;;
47882;SDS011;37739;50.350;7.578;2022-08-01T05:41:21;1.63;;;1.20;;
47882;SDS011;37739;50.350;7.578;2022-08-01T05:43:46;2.97;;;1.47;;
47882;SDS011;37739;50.350;7.578;2022-08-01T05:46:11;2.57;;;1.33;;
47882;SDS011;37739;50.350;7.578;2022-08-01T05:48:37;1.90;;;1.50;;
47882;SDS011;37739;50.350;7.578;2022-08-01T05:51:05;1.40;;;1.27;;
47882;SDS011;37739;50.350;7.578;2022-08-01T05:53:32;1.10;;;1.00;;
47882;SDS011;37739;50.350;7.578;2022-08-01T05:56:01;1.20;;;1.00;;
47882;SDS011;37739;50.350;7.578;2022-08-01T05:58:28;1.30;;;1.20;;
47882;SDS011;37739;50.350;7.578;2022-08-01T06:00:56;1.17;;;1.07;;
47882;SDS011;37739;50.350;7.578;2022-08-01T06:03:22;1.73;;;1.40;;
47882;SDS011;37739;50.350;7.578;2022-08-01T06:05:47;1.13;;;0.93;;
47882;SDS011;37739;50.350;7.578;2022-08-01T06:08:12;2.90;;;1.33;;
47882;SDS011;37739;50.350;7.578;2022-08-01T06:10:38;2.47;;;1.23;;
47882;SDS011;37739;50.350;7.578;2022-08-01T06:13:03;2.97;;;1.20;;
47882;SDS011;37739;50.350;7.578;2022-08-01T06:15:31;1.10;;;1.00;;
47882;SDS011;37739;50.350;7.578;2022-08-01T06:17:57;1.23;;;1.13;;
47882;SDS011;37739;50.350;7.578;2022-08-01T06:20:27;1.73;;;1.30;;
47882;SDS011;37739;50.350;7.578;2022-08-01T06:22:55;1.17;;;1.07;;
47882;SDS011;37739;50.350;7.578;2022-08-01T06:25:23;1.10;;;1.00;;
47882;SDS011;37739;50.350;7.578;2022-08-01T06:27:53;1.87;;;1.10;;
47882;SDS011;37739;50.350;7.578;2022-08-01T06:30:18;1.40;;;1.30;;
47882;SDS011;37739;50.350;7.578;2022-08-01T06:32:43;1.33;;;1.23;;
47882;SDS011;37739;50.350;7.578;2022-08-01T06:35:09;1.70;;;1.60;;
47882;SDS011;37739;50.350;7.578;2022-08-01T06:37:34;1.90;;;1.60;;
47882;SDS011;37739;50.350;7.578;2022-08-01T06:40:00;2.03;;;1.80;;
47882;SDS011;37739;50.350;7.578;2022-08-01T06:42:29;2.10;;;2.00;;
47882;SDS011;37739;50.350;7.578;2022-08-01T06:45:00;2.67;;;1.90;;
47882;SDS011;37739;50.350;7.578;2022-08-01T06:47:26;2.20;;;1.70;;
47882;SDS011;37739;50.350;7.578;2022-08-01T06:49:51;2.17;;;1.97;;
47882;SDS011;37739;50.350;7.578;2022-08-01T06:52:21;2.00;;;1.80;;
47882;SDS011;37739;50.350;7.578;2022-08-01T06:54:46;3.13;;;2.23;;
47882;SDS011;37739;50.350;7.578;2022-08-01T06:57:11;4.40;;;2.77;;
47882;SDS011;37739;50.350;7.578;2022-08-01T06:59:37;3.07;;;2.87;;
47882;SDS011;37739;50.350;7.578;2022-08-01T07:02:02;3.60;;;3.30;;
47882;SDS011;37739;50.350;7.578;2022-08-01T07:04:31;3.80;;;3.50;;
47882;SDS011;37739;50.350;7.578;2022-08-01T07:06:58;3.03;;;2.83;;
47882;SDS011;37739;50.350;7.578;2022-08-01T07:09:26;2.93;;;2.73;;
47882;SDS011;37739;50.350;7.578;2022-08-01T07:11:54;3.47;;;3.20;;
47882;SDS011;37739;50.350;7.578;2022-08-01T07:14:23;3.43;;;3.17;;
47882;SDS011;37739;50.350;7.578;2022-08-01T07:16:51;3.53;;;3.23;;
47882;SDS011;37739;50.350;7.578;2022-08-01T07:19:16;2.63;;;2.43;;
47882;SDS011;37739;50.350;7.578;2022-08-01T07:21:44;4.47;;;2.63;;
47882;SDS011;37739;50.350;7.578;2022-08-01T07:24:13;3.37;;;2.47;;
47882;SDS011;37739;50.350;7.578;2022-08-01T07:26:42;3.20;;;2.90;;
47882;SDS011;37739;50.350;7.578;2022-08-01T07:29:12;3.40;;;3.10;;
47882;SDS011;37739;50.350;7.578;2022-08-01T07:31:39;3.20;;;2.90;;
47882;SDS011;37739;50.350;7.578;2022-08-01T07:34:06;3.10;;;2.80;;
47882;SDS011;37739;50.350;7.578;2022-08-01T07:36:31;2.73;;;2.53;;
47882;SDS011;37739;50.350;7.578;2022-08-01T07:39:01;3.20;;;2.90;;
47882;SDS011;37739;50.350;7.578;2022-08-01T07:41:26;3.40;;;2.93;;
47882;SDS011;37739;50.350;7.578;2022-08-01T07:43:52;3.17;;;2.87;;
47882;SDS011;37739;50.350;7.578;2022-08-01T07:46:18;3.40;;;3.20;;
47882;SDS011;37739;50.350;7.578;2022-08-01T07:48:48;3.17;;;2.90;;
47882;SDS011;37739;50.350;7.578;2022-08-01T07:51:13;3.47;;;3.27;;
47882;SDS011;37739;50.350;7.578;2022-08-01T07:53:41;2.87;;;2.67;;
47882;SDS011;37739;50.350;7.578;2022-08-01T07:56:06;2.43;;;2.23;;
47882;SDS011;37739;50.350;7.578;2022-08-01T07:58:32;3.23;;;2.40;;
47882;SDS011;37739;50.350;7.578;2022-08-01T08:01:00;4.37;;;3.00;;
47882;SDS011;37739;50.350;7.578;2022-08-01T08:03:28;2.93;;;2.73;;
47882;SDS011;37739;50.350;7.578;2022-08-01T08:05:53;2.87;;;2.67;;
47882;SDS011;37739;50.350;7.578;2022-08-01T08:08:21;4.63;;;3.10;;
47882;SDS011;37739;50.350;7.578;2022-08-01T08:10:49;3.57;;;3.27;;
47882;SDS011;37739;50.350;7.578;2022-08-01T08:13:16;2.90;;;2.70;;
47882;SDS011;37739;50.350;7.578;2022-08-01T08:15:42;3.33;;;3.13;;
47882;SDS011;37739;50.350;7.578;2022-08-01T08:18:09;3.83;;;3.10;;
47882;SDS011;37739;50.350;7.578;2022-08-01T08:20:38;3.37;;;3.07;;
47882;SDS011;37739;50.350;7.578;2022-08-01T08:23:03;3.23;;;2.93;;
47882;SDS011;37739;50.350;7.578;2022-08-01T08:25:48;3.40;;;2.90;;
47882;SDS011;37739;50.350;7.578;2022-08-01T08:28:14;2.70;;;2.50;;
47882;SDS011;37739;50.350;7.578;2022-08-01T08:30:39;3.30;;;3.00;;
47882;SDS011;37739;50.350;7.578;2022-08-01T08:33:04;5.60;;;3.10;;
47882;SDS011;37739;50.350;7.578;2022-08-01T08:35:30;3.20;;;3.00;;
47882;SDS011;37739;50.350;7.578;2022-08-01T08:37:55;3.43;;;3.23;;
47882;SDS011;37739;50.350;7.578;2022-08-01T08:40:20;3.27;;;2.87;;
47882;SDS011;37739;50.350;7.578;2022-08-01T08:42:52;2.53;;;2.33;;
47882;SDS011;37739;50.350;7.578;2022-08-01T08:45:17;3.00;;;2.70;;
47882;SDS011;37739;50.350;7.578;2022-08-01T08:47:43;3.80;;;3.37;;
47882;SDS011;37739;50.350;7.578;2022-08-01T08:50:11;3.17;;;2.83;;
47882;SDS011;37739;50.350;7.578;2022-08-01T08:52:37;3.53;;;3.10;;
47882;SDS011;37739;50.350;7.578;2022-08-01T08:55:06;2.80;;;2.60;;
47882;SDS011;37739;50.350;7.578;2022-08-01T08:57:33;3.40;;;3.10;;
47882;SDS011;37739;50.350;7.578;2022-08-01T08:59:58;3.53;;;3.00;;
47882;SDS011;37739;50.350;7.578;2022-08-01T09:02:24;3.70;;;3.27;;
47882;SDS011;37739;50.350;7.578;2022-08-01T09:04:52;3.13;;;2.93;;
47882;SDS011;37739;50.350;7.578;2022-08-01T09:07:19;3.27;;;3.07;;
47882;SDS011;37739;50.350;7.578;2022-08-01T09:09:45;4.60;;;3.10;;
47882;SDS011;37739;50.350;7.578;2022-08-01T09:12:15;3.60;;;3.30;;
47882;SDS011;37739;50.350;7.578;2022-08-01T09:14:45;3.30;;;2.80;;
47882;SDS011;37739;50.350;7.578;2022-08-01T09:17:12;3.70;;;3.03;;
47882;SDS011;37739;50.350;7.578;2022-08-01T09:19:45;3.30;;;3.10;;
47882;SDS011;37739;50.350;7.578;2022-08-01T09:22:13;2.90;;;2.70;;
47882;SDS011;37739;50.350;7.578;2022-08-01T09:24:58;4.03;;;3.53;;
47882;SDS011;37739;50.350;7.578;2022-08-01T09:27:37;4.57;;;3.53;;
47882;SDS011;37739;50.350;7.578;2022-08-01T09:30:12;6.13;;;3.63;;
47882;SDS011;37739;50.350;7.578;2022-08-01T09:32:59;3.40;;;3.10;;
47882;SDS011;37739;50.350;7.578;2022-08-01T09:35:31;3.40;;;2.87;;
47882;SDS011;37739;50.350;7.578;2022-08-01T09:38:14;3.53;;;3.23;;
47882;SDS011;37739;50.350;7.578;2022-08-01T09:40:47;3.90;;;3.00;;
47882;SDS011;37739;50.350;7.578;2022-08-01T09:43:26;3.03;;;2.83;;
47882;SDS011;37739;50.350;7.578;2022-08-01T09:45:53;3.30;;;3.07;;
47882;SDS011;37739;50.350;7.578;2022-08-01T09:48:20;2.73;;;2.53;;
47882;SDS011;37739;50.350;7.578;2022-08-01T09:50:47;3.50;;;3.20;;
47882;SDS011;37739;50.350;7.578;2022-08-01T09:53:14;3.57;;;3.00;;
47882;SDS011;37739;50.350;7.578;2022-08-01T09:55:41;3.73;;;3.43;;
47882;SDS011;37739;50.350;7.578;2022-08-01T09:58:12;3.47;;;3.17;;
47882;SDS011;37739;50.350;7.578;2022-08-01T10:00:38;3.70;;;3.40;;
47882;SDS011;37739;50.350;7.578;2022-08-01T10:03:21;3.20;;;3.00;;
47882;SDS011;37739;50.350;7.578;2022-08-01T10:05:50;3.50;;;3.30;;
47882;SDS011;37739;50.350;7.578;2022-08-01T10:08:18;4.10;;;3.70;;
47882;SDS011;37739;50.350;7.578;2022-08-01T10:13:35;3.20;;;3.00;;
47882;SDS011;37739;50.350;7.578;2022-08-01T10:16:05;3.83;;;3.50;;
47882;SDS011;37739;50.350;7.578;2022-08-01T10:18:33;3.73;;;3.43;;
47882;SDS011;37739;50.350;7.578;2022-08-01T10:21:04;3.20;;;3.00;;
47882;SDS011;37739;50.350;7.578;2022-08-01T10:23:35;3.70;;;3.40;;
47882;SDS011;37739;50.350;7.578;2022-08-01T10:26:01;3.00;;;2.80;;
47882;SDS011;37739;50.350;7.578;2022-08-01T10:28:31;3.20;;;3.00;;
47882;SDS011;37739;50.350;7.578;2022-08-01T10:31:02;2.90;;;2.70;;
47882;SDS011;37739;50.350;7.578;2022-08-01T10:33:30;2.83;;;2.63;;
47882;SDS011;37739;50.350;7.578;2022-08-01T10:35:58;2.97;;;2.77;;
47882;SDS011;37739;50.350;7.578;2022-08-01T10:38:27;3.20;;;3.00;;
47882;SDS011;37739;50.350;7.578;2022-08-01T10:40:55;4.83;;;2.93;;
47882;SDS011;37739;50.350;7.578;2022-08-01T10:43:21;3.10;;;2.90;;
47882;SDS011;37739;50.350;7.578;2022-08-01T10:45:47;3.10;;;2.90;;
47882;SDS011;37739;50.350;7.578;2022-08-01T10:48:31;3.20;;;3.00;;
47882;SDS011;37739;50.350;7.578;2022-08-01T10:51:02;2.97;;;2.77;;
47882;SDS011;37739;50.350;7.578;2022-08-01T10:53:29;3.03;;;2.70;;
47882;SDS011;37739;50.350;7.578;2022-08-01T10:58:27;3.47;;;3.17;;
47882;SDS011;37739;50.350;7.578;2022-08-01T11:06:24;2.90;;;2.53;;
47882;SDS011;37739;50.350;7.578;2022-08-01T11:08:53;3.50;;;2.87;;
47882;SDS011;37739;50.350;7.578;2022-08-01T11:11:19;3.17;;;2.90;;
47882;SDS011;37739;50.350;7.578;2022-08-01T11:18:54;3.13;;;2.87;;
47882;SDS011;37739;50.350;7.578;2022-08-01T11:21:20;3.40;;;3.10;;
47882;SDS011;37739;50.350;7.578;2022-08-01T11:23:49;3.83;;;3.53;;
47882;SDS011;37739;50.350;7.578;2022-08-01T11:26:18;4.37;;;3.27;;
47882;SDS011;37739;50.350;7.578;2022-08-01T11:29:10;3.63;;;3.33;;
47882;SDS011;37739;50.350;7.578;2022-08-01T11:31:39;3.60;;;3.30;;
47882;SDS011;37739;50.350;7.578;2022-08-01T11:34:07;3.60;;;3.30;;
47882;SDS011;37739;50.350;7.578;2022-08-01T11:36:32;4.00;;;3.70;;
47882;SDS011;37739;50.350;7.578;2022-08-01T11:41:29;3.57;;;3.27;;
47882;SDS011;37739;50.350;7.578;2022-08-01T11:52:05;3.40;;;3.10;;
47882;SDS011;37739;50.350;7.578;2022-08-01T11:54:35;4.40;;;4.10;;
47882;SDS011;37739;50.350;7.578;2022-08-01T11:57:06;3.17;;;2.97;;
47882;SDS011;37739;50.350;7.578;2022-08-01T11:59:57;3.07;;;2.87;;
47882;SDS011;37739;50.350;7.578;2022-08-01T12:05:03;3.40;;;3.20;;
47882;SDS011;37739;50.350;7.578;2022-08-01T12:07:31;3.47;;;2.70;;
47882;SDS011;37739;50.350;7.578;2022-08-01T12:12:30;3.57;;;3.33;;
47882;SDS011;37739;50.350;7.578;2022-08-01T12:15:01;3.40;;;3.10;;
47882;SDS011;37739;50.350;7.578;2022-08-01T12:17:36;3.10;;;2.90;;
47882;SDS011;37739;50.350;7.578;2022-08-01T12:20:07;3.60;;;2.87;;
47882;SDS011;37739;50.350;7.578;2022-08-01T12:22:35;4.00;;;3.20;;
47882;SDS011;37739;50.350;7.578;2022-08-01T12:25:05;3.40;;;3.20;;
47882;SDS011;37739;50.350;7.578;2022-08-01T12:27:35;4.73;;;3.40;;
47882;SDS011;37739;50.350;7.578;2022-08-01T12:30:04;3.27;;;3.07;;
47882;SDS011;37739;50.350;7.578;2022-08-01T12:32:35;3.47;;;3.13;;
47882;SDS011;37739;50.350;7.578;2022-08-01T12:35:03;3.37;;;3.17;;
47882;SDS011;37739;50.350;7.578;2022-08-01T12:37:49;3.30;;;2.80;;
47882;SDS011;37739;50.350;7.578;2022-08-01T12:40:22;3.33;;;3.13;;
47882;SDS011;37739;50.350;7.578;2022-08-01T12:43:02;2.90;;;2.70;;
47882;SDS011;37739;50.350;7.578;2022-08-01T12:45:30;3.10;;;2.90;;
47882;SDS011;37739;50.350;7.578;2022-08-01T12:48:01;3.00;;;2.80;;
47882;SDS011;37739;50.350;7.578;2022-08-01T12:50:32;3.40;;;3.10;;
47882;SDS011;37739;50.350;7.578;2022-08-01T12:53:04;2.90;;;2.70;;
47882;SDS011;37739;50.350;7.578;2022-08-01T12:55:30;2.90;;;2.50;;
47882;SDS011;37739;50.350;7.578;2022-08-01T12:58:09;3.30;;;3.10;;
47882;SDS011;37739;50.350;7.578;2022-08-01T13:00:37;3.07;;;2.87;;
47882;SDS011;37739;50.350;7.578;2022-08-01T13:05:43;3.00;;;2.80;;
47882;SDS011;37739;50.350;7.578;2022-08-01T13:11:04;4.07;;;2.57;;
47882;SDS011;37739;50.350;7.578;2022-08-01T13:13:52;3.20;;;2.90;;
47882;SDS011;37739;50.350;7.578;2022-08-01T13:16:22;3.60;;;3.40;;
47882;SDS011;37739;50.350;7.578;2022-08-01T13:18:50;3.27;;;2.97;;
47882;SDS011;37739;50.350;7.578;2022-08-01T13:21:23;3.37;;;3.07;;
47882;SDS011;37739;50.350;7.578;2022-08-01T13:24:07;2.60;;;2.40;;
47882;SDS011;37739;50.350;7.578;2022-08-01T13:26:53;3.10;;;2.80;;
47882;SDS011;37739;50.350;7.578;2022-08-01T13:32:15;3.40;;;2.33;;
47882;SDS011;37739;50.350;7.578;2022-08-01T13:34:42;2.27;;;2.07;;
47882;SDS011;37739;50.350;7.578;2022-08-01T13:37:09;2.20;;;2.00;;
47882;SDS011;37739;50.350;7.578;2022-08-01T13:39:34;2.20;;;2.10;;
47882;SDS011;37739;50.350;7.578;2022-08-01T13:42:09;3.60;;;1.97;;
47882;SDS011;37739;50.350;7.578;2022-08-01T13:44:38;2.00;;;1.90;;
47882;SDS011;37739;50.350;7.578;2022-08-01T13:47:04;3.17;;;1.70;;
47882;SDS011;37739;50.350;7.578;2022-08-01T13:49:29;2.40;;;2.20;;
47882;SDS011;37739;50.350;7.578;2022-08-01T13:51:57;2.10;;;1.90;;
47882;SDS011;37739;50.350;7.578;2022-08-01T13:54:26;2.10;;;1.90;;
47882;SDS011;37739;50.350;7.578;2022-08-01T13:56:51;2.40;;;2.20;;
47882;SDS011;37739;50.350;7.578;2022-08-01T13:59:17;2.30;;;2.10;;
47882;SDS011;37739;50.350;7.578;2022-08-01T14:01:47;2.90;;;2.63;;
47882;SDS011;37739;50.350;7.578;2022-08-01T14:04:13;2.53;;;2.33;;
47882;SDS011;37739;50.350;7.578;2022-08-01T14:06:40;3.13;;;2.83;;
47882;SDS011;37739;50.350;7.578;2022-08-01T14:09:08;3.17;;;2.63;;
47882;SDS011;37739;50.350;7.578;2022-08-01T14:11:34;3.00;;;2.80;;
47882;SDS011;37739;50.350;7.578;2022-08-01T14:14:02;3.13;;;2.83;;
47882;SDS011;37739;50.350;7.578;2022-08-01T14:16:27;3.90;;;3.60;;
47882;SDS011;37739;50.350;7.578;2022-08-01T14:18:52;2.70;;;2.50;;
47882;SDS011;37739;50.350;7.578;2022-08-01T14:21:18;3.23;;;2.93;;
47882;SDS011;37739;50.350;7.578;2022-08-01T14:23:44;2.70;;;2.50;;
47882;SDS011;37739;50.350;7.578;2022-08-01T14:26:09;2.90;;;2.60;;
47882;SDS011;37739;50.350;7.578;2022-08-01T14:28:37;2.83;;;2.63;;
47882;SDS011;37739;50.350;7.578;2022-08-01T14:31:07;3.93;;;2.93;;
47882;SDS011;37739;50.350;7.578;2022-08-01T14:33:33;2.57;;;2.37;;
47882;SDS011;37739;50.350;7.578;2022-08-01T14:35:58;3.23;;;3.00;;
47882;SDS011;37739;50.350;7.578;2022-08-01T14:38:24;2.83;;;2.63;;
47882;SDS011;37739;50.350;7.578;2022-08-01T14:40:49;3.53;;;3.10;;
47882;SDS011;37739;50.350;7.578;2022-08-01T14:43:18;3.47;;;3.27;;
47882;SDS011;37739;50.350;7.578;2022-08-01T14:45:44;2.90;;;2.70;;
47882;SDS011;37739;50.350;7.578;2022-08-01T14:48:09;3.43;;;2.83;;
47882;SDS011;37739;50.350;7.578;2022-08-01T14:50:39;3.63;;;3.33;;
47882;SDS011;37739;50.350;7.578;2022-08-01T14:53:07;3.50;;;3.10;;
47882;SDS011;37739;50.350;7.578;2022-08-01T14:55:35;3.03;;;2.83;;
47882;SDS011;37739;50.350;7.578;2022-08-01T14:58:02;3.70;;;3.40;;
47882;SDS011;37739;50.350;7.578;2022-08-01T15:00:32;3.67;;;3.47;;
47882;SDS011;37739;50.350;7.578;2022-08-01T15:02:58;3.57;;;3.27;;
47882;SDS011;37739;50.350;7.578;2022-08-01T15:05:23;3.30;;;3.10;;
47882;SDS011;37739;50.350;7.578;2022-08-01T15:07:48;2.70;;;2.50;;
47882;SDS011;37739;50.350;7.578;2022-08-01T15:10:16;4.40;;;3.20;;
47882;SDS011;37739;50.350;7.578;2022-08-01T15:12:44;2.90;;;2.70;;
47882;SDS011;37739;50.350;7.578;2022-08-01T15:15:12;3.30;;;2.80;;
47882;SDS011;37739;50.350;7.578;2022-08-01T15:17:37;3.00;;;2.80;;
47882;SDS011;37739;50.350;7.578;2022-08-01T15:20:04;3.27;;;3.07;;
47882;SDS011;37739;50.350;7.578;2022-08-01T15:22:31;3.03;;;2.83;;
47882;SDS011;37739;50.350;7.578;2022-08-01T15:25:00;2.67;;;2.47;;
47882;SDS011;37739;50.350;7.578;2022-08-01T15:27:27;3.23;;;3.03;;
47882;SDS011;37739;50.350;7.578;2022-08-01T15:29:54;2.97;;;2.77;;
47882;SDS011;37739;50.350;7.578;2022-08-01T15:32:20;2.80;;;2.57;;
47882;SDS011;37739;50.350;7.578;2022-08-01T15:34:48;4.67;;;2.80;;
47882;SDS011;37739;50.350;7.578;2022-08-01T15:37:14;2.57;;;2.37;;
47882;SDS011;37739;50.350;7.578;2022-08-01T15:39:41;2.60;;;2.30;;
47882;SDS011;37739;50.350;7.578;2022-08-01T15:42:13;2.77;;;2.57;;
47882;SDS011;37739;50.350;7.578;2022-08-01T15:44:39;2.77;;;2.57;;